Time;durP1;ratioP1;P1;durP2;ratioP2;P2;SDS_P1;SDS_P2;PMS_P1;PMS_P2;Temp;Humidity;BMP_temperature;BMP_pressure;BME280_temperature;BME280_humidity;BME280_pressure;Samples;Min_cycle;Max_cycle;Signal;HPM_P1;HPM_P2
2022/05/05 00:03:24;;;;;;;24.85;9.77;;;;;12.70;96393.00;;;;8450083;27;20239;-75
2022/05/05 00:07:28;;;;;;;34.63;10.52;;;;;12.70;96389.00;;;;8446433;28;20243;-75
2022/05/05 00:15:54;;;;;;;22.20;9.60;;;;;12.70;96389.00;;;;8447226;28;20315;-74
2022/05/05 00:19:57;;;;;;;28.00;10.00;;;;;12.70;96397.00;;;;8443666;28;20248;-74
2022/05/05 00:24:00;;;;;;;24.50;9.43;;;;;12.70;96395.00;;;;8444615;28;20611;-73
2022/05/05 00:28:03;;;;;;;21.33;10.07;;;;;12.70;96388.00;;;;8448339;28;20234;-75
2022/05/05 00:32:09;;;;;;;26.00;10.02;;;;;12.70;96385.00;;;;8448489;28;20309;-75
2022/05/05 00:36:12;;;;;;;23.20;10.00;;;;;12.60;96386.00;;;;8446336;28;20308;-75
2022/05/05 00:40:15;;;;;;;20.05;9.32;;;;;12.60;96391.00;;;;8446680;28;20221;-75
2022/05/05 00:44:18;;;;;;;24.50;10.20;;;;;12.70;96384.00;;;;8449922;28;20233;-75
2022/05/05 00:48:26;;;;;;;23.80;9.68;;;;;12.60;96390.00;;;;8446396;28;20313;-75
2022/05/05 00:52:30;;;;;;;21.25;9.60;;;;;12.70;96399.00;;;;8432417;28;20321;-75
2022/05/05 00:56:33;;;;;;;24.95;10.10;;;;;12.70;96386.00;;;;8446081;28;20326;-75
2022/05/05 01:00:36;;;;;;;38.42;11.18;;;;;12.60;96392.00;;;;8447966;27;20331;-75
2022/05/05 01:04:42;;;;;;;25.75;10.43;;;;;12.70;96389.00;;;;8447430;28;20950;-74
2022/05/05 01:08:46;;;;;;;22.77;9.85;;;;;12.70;96394.00;;;;8446308;28;20230;-75
2022/05/05 01:12:49;;;;;;;26.83;10.00;;;;;12.60;96387.00;;;;8447669;28;20325;-75
2022/05/05 01:16:53;;;;;;;22.92;10.00;;;;;12.60;96386.00;;;;8445680;28;20222;-75
2022/05/05 01:20:58;;;;;;;19.75;9.98;;;;;12.60;96391.00;;;;8449544;27;20291;-75
2022/05/05 01:29:24;;;;;;;23.67;10.63;;;;;12.60;96398.00;;;;8447118;28;20228;-75
2022/05/05 01:33:30;;;;;;;29.77;11.20;;;;;12.70;96400.00;;;;8438494;28;20257;-75
2022/05/05 01:37:33;;;;;;;24.13;10.27;;;;;12.60;96409.00;;;;8445278;28;20228;-76
2022/05/05 01:41:38;;;;;;;27.50;11.25;;;;;12.60;96401.00;;;;8445413;28;20226;-76
2022/05/05 01:45:42;;;;;;;38.53;11.63;;;;;12.60;96410.00;;;;8446284;28;20232;-75
2022/05/05 01:49:46;;;;;;;32.17;11.63;;;;;12.60;96417.00;;;;8446148;28;20316;-75
2022/05/05 01:53:49;;;;;;;32.95;12.00;;;;;12.60;96415.00;;;;8440215;28;20251;-74
2022/05/05 01:57:54;;;;;;;31.75;11.68;;;;;12.60;96405.00;;;;8450902;28;20251;-74
2022/05/05 02:01:57;;;;;;;29.05;11.73;;;;;12.70;96406.00;;;;8445983;28;20231;-75
2022/05/05 02:06:01;;;;;;;25.13;11.68;;;;;12.60;96407.00;;;;8447438;27;20941;-75
2022/05/05 02:10:04;;;;;;;27.65;12.57;;;;;12.60;96404.00;;;;8454480;27;20231;-76
2022/05/05 02:14:09;;;;;;;37.28;14.05;;;;;12.40;96407.00;;;;8444504;28;20411;-76
2022/05/05 02:18:14;;;;;;;42.00;14.27;;;;;12.30;96402.00;;;;8446890;28;20221;-74
2022/05/05 02:22:17;;;;;;;37.60;14.43;;;;;12.20;96393.00;;;;8446245;28;20260;-75
2022/05/05 02:26:20;;;;;;;35.08;13.93;;;;;12.10;96397.00;;;;8444179;28;20613;-74
2022/05/05 02:30:26;;;;;;;74.95;15.95;;;;;12.00;96389.00;;;;8449564;28;20235;-74
2022/05/05 02:34:29;;;;;;;82.57;16.35;;;;;11.90;96396.00;;;;8443134;28;20227;-73
2022/05/05 02:38:44;;;;;;;53.90;13.30;;;;;11.80;96399.00;;;;8452277;28;20256;-74
2022/05/05 02:42:47;;;;;;;47.83;14.48;;;;;11.70;96406.00;;;;8433925;27;20234;-73
2022/05/05 02:46:52;;;;;;;40.33;13.32;;;;;11.70;96410.00;;;;8448023;28;20233;-74
2022/05/05 02:50:55;;;;;;;40.33;12.80;;;;;11.60;96408.00;;;;8450684;28;20224;-72
2022/05/05 02:54:58;;;;;;;618.28;30.88;;;;;11.50;96403.00;;;;8464789;27;20636;-73
2022/05/05 02:59:01;;;;;;;187.63;16.65;;;;;11.40;96395.00;;;;8448810;28;20222;-73
2022/05/05 03:03:06;;;;;;;28.05;11.25;;;;;11.30;96404.00;;;;8433325;22;20239;-73
2022/05/05 03:07:09;;;;;;;345.98;19.98;;;;;11.30;96394.00;;;;8364441;28;20216;-73
2022/05/05 03:11:13;;;;;;;186.35;16.60;;;;;11.40;96407.00;;;;8353528;28;20637;-74
2022/05/05 03:15:16;;;;;;;451.80;24.13;;;;;11.40;96401.00;;;;8373862;28;20226;-73
2022/05/05 03:19:20;;;;;;;391.58;23.45;;;;;11.50;96400.00;;;;8369079;28;20649;-72
2022/05/05 03:23:23;;;;;;;503.20;26.63;;;;;11.50;96399.00;;;;8338542;28;20232;-74
2022/05/05 03:27:27;;;;;;;169.25;16.85;;;;;11.50;96405.00;;;;8357152;28;20233;-75
2022/05/05 03:31:30;;;;;;;302.55;21.52;;;;;11.50;96404.00;;;;8359952;28;20239;-74
2022/05/05 03:35:34;;;;;;;80.07;15.65;;;;;11.60;96406.00;;;;8361312;28;20699;-77
2022/05/05 03:39:38;;;;;;;40.45;13.55;;;;;11.80;96396.00;;;;8364903;28;20236;-78
2022/05/05 03:43:41;;;;;;;36.70;13.20;;;;;11.90;96402.00;;;;8351633;28;20225;-75
2022/05/05 03:47:45;;;;;;;37.17;13.13;;;;;12.00;96410.00;;;;8346103;28;20230;-72
2022/05/05 03:51:49;;;;;;;42.40;14.15;;;;;12.10;96404.00;;;;8369386;28;20242;-73
2022/05/05 03:55:53;;;;;;;35.90;13.00;;;;;12.20;96419.00;;;;8378013;28;20310;-72
2022/05/05 03:59:56;;;;;;;32.85;11.95;;;;;12.30;96414.00;;;;8368314;28;20677;-74
2022/05/05 04:04:00;;;;;;;41.33;13.63;;;;;12.30;96421.00;;;;8368279;28;20234;-74
2022/05/05 04:08:05;;;;;;;43.53;15.32;;;;;12.40;96428.00;;;;8394963;28;20233;-71
2022/05/05 04:12:10;;;;;;;38.80;13.45;;;;;12.50;96430.00;;;;8376706;28;20632;-72
2022/05/05 04:16:13;;;;;;;43.00;12.73;;;;;12.60;96433.00;;;;8405461;28;20670;-72
2022/05/05 04:20:16;;;;;;;42.33;12.40;;;;;12.60;96438.00;;;;8373606;28;20310;-73
2022/05/05 04:24:21;;;;;;;43.67;13.00;;;;;12.60;96444.00;;;;8386909;28;20244;-74
2022/05/05 04:28:25;;;;;;;31.50;12.65;;;;;12.70;96456.00;;;;8374328;28;20246;-71
2022/05/05 04:32:28;;;;;;;68.00;13.52;;;;;12.70;96455.00;;;;8382504;28;20234;-76
2022/05/05 04:36:34;;;;;;;59.05;13.60;;;;;12.80;96463.00;;;;8374305;28;20244;-72
2022/05/05 04:40:39;;;;;;;36.75;12.90;;;;;12.90;96467.00;;;;8397744;28;20690;-71
2022/05/05 04:44:42;;;;;;;43.65;13.57;;;;;13.10;96469.00;;;;8384251;28;20245;-73
2022/05/05 04:48:45;;;;;;;47.45;15.07;;;;;13.30;96475.00;;;;8386229;28;20589;-73
2022/05/05 04:52:49;;;;;;;61.58;16.23;;;;;13.40;96473.00;;;;8377575;28;20226;-73
2022/05/05 04:56:53;;;;;;;55.55;15.23;;;;;13.60;96463.00;;;;8375749;28;20319;-76
2022/05/05 05:00:56;;;;;;;65.07;16.35;;;;;13.70;96465.00;;;;8374011;28;20228;-72
2022/05/05 05:04:59;;;;;;;85.68;19.73;;;;;13.90;96474.00;;;;8397569;28;20238;-74
2022/05/05 05:09:03;;;;;;;85.40;18.88;;;;;13.90;96471.00;;;;8403659;28;20404;-73
2022/05/05 05:13:08;;;;;;;97.70;20.70;;;;;14.00;96471.00;;;;8397235;28;20224;-73
2022/05/05 05:17:11;;;;;;;99.75;21.25;;;;;14.10;96480.00;;;;8396952;28;20223;-73
2022/05/05 05:21:14;;;;;;;117.25;24.30;;;;;14.20;96473.00;;;;8407186;28;20291;-73
2022/05/05 05:25:17;;;;;;;102.75;24.08;;;;;14.20;96480.00;;;;8396644;28;20575;-74
2022/05/05 05:29:22;;;;;;;119.88;24.30;;;;;14.30;96485.00;;;;8403839;28;20239;-72
2022/05/05 05:33:25;;;;;;;109.18;24.55;;;;;14.50;96486.00;;;;8387214;28;20227;-75
2022/05/05 05:37:28;;;;;;;124.22;26.45;;;;;14.40;96480.00;;;;8386224;28;20223;-75
2022/05/05 05:41:31;;;;;;;80.70;23.55;;;;;14.50;96485.00;;;;8392538;28;20219;-74
2022/05/05 05:45:36;;;;;;;89.28;23.55;;;;;14.70;96490.00;;;;8385809;28;20806;-75
2022/05/05 05:49:39;;;;;;;75.38;22.77;;;;;14.80;96492.00;;;;8379966;28;20870;-74
2022/05/05 05:53:42;;;;;;;78.82;23.30;;;;;14.80;96491.00;;;;8382779;28;20689;-75
2022/05/05 05:57:46;;;;;;;84.70;24.17;;;;;14.90;96494.00;;;;8389622;28;20226;-75
2022/05/05 06:06:11;;;;;;;66.95;23.25;;;;;16.10;96503.00;;;;8351720;28;20224;-74
2022/05/05 06:10:14;;;;;;;66.97;24.10;;;;;16.50;96502.00;;;;8351504;28;20576;-75
2022/05/05 06:14:17;;;;;;;61.72;23.58;;;;;16.80;96510.00;;;;8378203;28;20248;-75
2022/05/05 06:18:22;;;;;;;58.30;22.88;;;;;17.10;96505.00;;;;8372467;28;20220;-75
2022/05/05 06:22:25;;;;;;;52.17;23.58;;;;;17.50;96509.00;;;;8361125;28;20290;-74
2022/05/05 06:26:28;;;;;;;40.83;22.13;;;;;18.00;96507.00;;;;8378894;28;20329;-73
2022/05/05 06:30:32;;;;;;;38.45;21.38;;;;;18.10;96510.00;;;;8363995;28;20331;-72
2022/05/05 06:34:36;;;;;;;38.20;21.58;;;;;18.20;96517.00;;;;8374525;28;20234;-72
2022/05/05 06:38:39;;;;;;;36.22;21.98;;;;;18.50;96508.00;;;;8367285;28;20736;-72
2022/05/05 06:42:49;;;;;;;35.22;21.65;;;;;19.10;96502.00;;;;8373887;28;20232;-73
2022/05/05 06:46:52;;;;;;;32.75;21.48;;;;;19.90;96510.00;;;;8380760;28;20232;-72
2022/05/05 06:50:57;;;;;;;33.55;22.52;;;;;20.70;96511.00;;;;8363231;28;20223;-72
2022/05/05 06:55:01;;;;;;;31.60;21.45;;;;;20.90;96520.00;;;;8371868;28;20769;-73
2022/05/05 06:59:04;;;;;;;30.95;21.15;;;;;20.40;96515.00;;;;8361030;28;20314;-73
2022/05/05 07:03:07;;;;;;;29.05;20.30;;;;;20.20;96523.00;;;;8384789;28;20239;-73
2022/05/05 07:07:13;;;;;;;28.52;19.67;;;;;19.80;96522.00;;;;8394291;28;20755;-74
2022/05/05 07:11:17;;;;;;;26.42;18.33;;;;;19.60;96527.00;;;;8394801;28;20325;-74
2022/05/05 07:15:20;;;;;;;25.30;18.55;;;;;19.90;96530.00;;;;8398501;28;20251;-74
2022/05/05 07:19:24;;;;;;;26.83;18.70;;;;;19.40;96528.00;;;;8398552;28;20219;-74
2022/05/05 07:23:28;;;;;;;28.95;18.88;;;;;19.10;96534.00;;;;8405742;28;20287;-75
2022/05/05 07:27:31;;;;;;;27.92;19.50;;;;;19.40;96526.00;;;;8410738;28;20659;-74
2022/05/05 07:31:34;;;;;;;29.23;19.02;;;;;20.00;96532.00;;;;8398539;28;20311;-74
2022/05/05 07:35:38;;;;;;;26.95;17.75;;;;;20.30;96537.00;;;;8400696;28;20223;-73
2022/05/05 07:39:43;;;;;;;28.20;18.70;;;;;20.70;96552.00;;;;8402884;28;20697;-73
2022/05/05 07:43:49;;;;;;;25.92;17.60;;;;;20.70;96560.00;;;;8388395;28;20224;-72
2022/05/05 07:47:56;;;;;;;25.10;17.45;;;;;21.10;96565.00;;;;8404704;28;20326;-72
2022/05/05 07:51:59;;;;;;;32.08;19.10;;;;;20.70;96565.00;;;;8404912;28;20349;-72
2022/05/05 07:56:05;;;;;;;26.20;17.67;;;;;20.50;96569.00;;;;8397311;28;20219;-73
2022/05/05 08:00:10;;;;;;;23.70;17.17;;;;;20.90;96571.00;;;;8389687;28;20310;-74
2022/05/05 08:04:13;;;;;;;27.27;18.65;;;;;20.70;96563.00;;;;8386225;28;20223;-74
2022/05/05 08:08:16;;;;;;;25.85;17.88;;;;;20.90;96565.00;;;;8387511;28;20314;-73
2022/05/05 08:12:21;;;;;;;25.17;17.65;;;;;21.00;96570.00;;;;8381918;28;20223;-73
2022/05/05 08:16:25;;;;;;;20.98;14.45;;;;;21.50;96574.00;;;;8380081;28;20219;-73
2022/05/05 08:20:29;;;;;;;22.65;14.30;;;;;22.30;96581.00;;;;8385402;28;20680;-73
2022/05/05 08:28:54;;;;;;;19.33;13.63;;;;;23.30;96592.00;;;;8395882;28;20227;-71
2022/05/05 08:32:57;;;;;;;16.77;13.40;;;;;23.30;96594.00;;;;8394389;28;20223;-72
2022/05/05 08:37:01;;;;;;;20.40;13.80;;;;;23.40;96608.00;;;;8390579;28;20223;-72
2022/05/05 08:41:04;;;;;;;15.77;12.80;;;;;23.80;96616.00;;;;8382481;28;20220;-70
2022/05/05 08:45:10;;;;;;;14.50;12.35;;;;;24.30;96619.00;;;;8395251;28;20230;-72
2022/05/05 08:49:13;;;;;;;18.73;12.00;;;;;24.20;96616.00;;;;8400546;28;20231;-70
2022/05/05 08:53:17;;;;;;;12.00;10.70;;;;;24.50;96615.00;;;;8410722;28;20230;-72
2022/05/05 08:57:20;;;;;;;14.88;11.40;;;;;24.30;96615.00;;;;8404957;28;20247;-73
2022/05/05 09:01:26;;;;;;;13.93;10.75;;;;;24.80;96616.00;;;;8404928;28;20219;-73
2022/05/05 09:05:51;;;;;;;12.13;8.68;;;;;25.00;96617.00;;;;8368847;28;20251;-70
2022/05/05 09:09:54;;;;;;;11.32;8.57;;;;;25.60;96623.00;;;;8370220;28;20219;-75
2022/05/05 09:14:07;;;;;;;7.85;7.05;;;;;25.30;96617.00;;;;8376607;28;20247;-76
2022/05/05 09:18:13;;;;;;;8.73;6.80;;;;;25.60;96612.00;;;;8376996;28;20228;-79
2022/05/05 09:22:19;;;;;;;8.73;5.72;;;;;25.30;96613.00;;;;8374887;28;20240;-70
2022/05/05 09:26:26;;;;;;;6.60;5.68;;;;;25.20;96610.00;;;;8377946;28;20227;-73
2022/05/05 09:30:31;;;;;;;7.13;6.43;;;;;25.90;96617.00;;;;8366429;28;20229;-73
2022/05/05 09:34:35;;;;;;;6.88;5.65;;;;;25.80;96620.00;;;;8372123;28;20242;-76
2022/05/05 09:38:53;;;;;;;6.75;6.03;;;;;26.10;96624.00;;;;8375619;28;20233;-73
2022/05/05 09:42:56;;;;;;;10.82;7.47;;;;;25.70;96620.00;;;;8371444;28;20247;-73
2022/05/05 09:47:03;;;;;;;5.97;5.38;;;;;24.10;96628.00;;;;8375287;28;20262;-72
2022/05/05 09:51:08;;;;;;;8.07;7.28;;;;;24.00;96622.00;;;;8378840;28;20234;-72
2022/05/05 09:59:40;;;;;;;9.55;6.82;;;;;25.80;96619.00;;;;8364673;28;20251;-69
2022/05/05 10:04:05;;;;;;;7.63;6.75;;;;;26.30;96620.00;;;;8383707;28;20645;-72
2022/05/05 10:08:10;;;;;;;8.10;6.57;;;;;26.70;96625.00;;;;8394817;28;20581;-75
2022/05/05 10:12:14;;;;;;;5.68;5.18;;;;;27.10;96617.00;;;;8409090;28;20318;-71
2022/05/05 10:16:20;;;;;;;8.57;5.43;;;;;28.10;96619.00;;;;8405437;28;20258;-71
2022/05/05 10:20:24;;;;;;;6.88;6.18;;;;;28.70;96618.00;;;;8405358;28;20215;-71
2022/05/05 10:24:30;;;;;;;4.75;4.28;;;;;28.60;96619.00;;;;8402949;28;20251;-69
2022/05/05 10:28:47;;;;;;;6.45;4.45;;;;;28.40;96615.00;;;;8399622;28;20228;-71
2022/05/05 10:32:51;;;;;;;5.70;4.30;;;;;28.10;96616.00;;;;8404204;28;20231;-70
2022/05/05 10:37:00;;;;;;;4.93;4.10;;;;;27.80;96618.00;;;;8402542;28;20223;-70
2022/05/05 10:41:37;;;;;;;4.07;3.67;;;;;28.60;96614.00;;;;8402434;28;20302;-70
2022/05/05 10:45:40;;;;;;;5.40;4.90;;;;;29.50;96603.00;;;;8401332;28;20299;-75
2022/05/05 10:49:52;;;;;;;5.85;5.35;;;;;28.20;96601.00;;;;8400729;28;20326;-69
2022/05/05 10:54:22;;;;;;;7.30;4.70;;;;;27.20;96606.00;;;;8411383;28;20318;-70
2022/05/05 10:58:59;;;;;;;7.30;4.93;;;;;27.60;96602.00;;;;8410891;28;20230;-72
2022/05/05 11:03:18;;;;;;;4.93;4.53;;;;;28.90;96599.00;;;;8403060;28;20223;-73
2022/05/05 11:07:35;;;;;;;5.53;5.03;;;;;29.10;96610.00;;;;8402916;28;20231;-72
2022/05/05 11:11:41;;;;;;;5.28;4.78;;;;;29.70;96614.00;;;;8402759;28;20965;-72
2022/05/05 11:24:35;;;;;;;8.68;5.10;;;;;25.10;96615.00;;;;8396916;28;20232;-69
2022/05/05 11:28:38;;;;;;;6.22;5.45;;;;;23.90;96609.00;;;;8394583;28;20234;-69
2022/05/05 11:32:44;;;;;;;6.35;5.70;;;;;23.30;96612.00;;;;8394211;28;20339;-70
2022/05/05 11:37:11;;;;;;;7.10;6.25;;;;;22.80;96610.00;;;;8402523;28;20223;-70
2022/05/05 11:41:19;;;;;;;7.85;5.88;;;;;22.80;96618.00;;;;8400521;28;20219;-69
2022/05/05 11:45:23;;;;;;;7.18;5.93;;;;;22.50;96619.00;;;;8409568;28;20841;-70
2022/05/05 11:49:32;;;;;;;7.40;6.55;;;;;22.30;96616.00;;;;8405651;28;20227;-68
2022/05/05 11:53:36;;;;;;;6.25;5.65;;;;;22.30;96618.00;;;;8404268;28;20251;-68
2022/05/05 11:57:41;;;;;;;7.35;5.03;;;;;22.40;96619.00;;;;8406319;28;20234;-68
2022/05/05 12:01:45;;;;;;;12.85;5.38;;;;;22.50;96625.00;;;;8399838;28;20234;-70
2022/05/05 12:05:53;;;;;;;8.45;5.72;;;;;22.50;96619.00;;;;8396670;28;20971;-68
2022/05/05 12:09:58;;;;;;;9.35;4.95;;;;;22.10;96617.00;;;;8398800;28;20227;-69
2022/05/05 12:14:06;;;;;;;5.28;4.78;;;;;21.80;96614.00;;;;8400160;28;20230;-67
2022/05/05 12:18:16;;;;;;;5.75;4.38;;;;;21.60;96614.00;;;;8391384;28;20331;-70
2022/05/05 12:22:31;;;;;;;4.68;4.28;;;;;21.50;96605.00;;;;8402225;28;20223;-70
2022/05/05 12:26:36;;;;;;;7.40;4.60;;;;;21.40;96606.00;;;;8409256;28;20310;-68
2022/05/05 12:30:41;;;;;;;5.10;4.70;;;;;21.60;96602.00;;;;8412221;28;20314;-68
2022/05/05 12:34:45;;;;;;;5.10;4.40;;;;;21.90;96599.00;;;;8414295;28;20764;-71
2022/05/05 12:38:49;;;;;;;6.45;4.40;;;;;22.00;96598.00;;;;8410657;28;20579;-69
2022/05/05 12:43:01;;;;;;;4.63;4.30;;;;;22.10;96604.00;;;;8405393;28;20223;-72
2022/05/05 12:47:04;;;;;;;4.90;4.40;;;;;22.30;96593.00;;;;8412931;28;20223;-73
2022/05/05 12:51:17;;;;;;;7.13;6.10;;;;;22.40;96583.00;;;;8413801;28;20231;-70
2022/05/05 12:59:47;;;;;;;7.32;6.63;;;;;22.10;96578.00;;;;8409880;28;20229;-70
2022/05/05 13:03:52;;;;;;;8.13;7.05;;;;;22.30;96567.00;;;;8396007;28;20327;-72
2022/05/05 13:07:55;;;;;;;7.30;6.60;;;;;22.60;96563.00;;;;8381858;28;20778;-72
2022/05/05 13:12:00;;;;;;;6.45;5.30;;;;;23.10;96553.00;;;;8378512;28;20235;-73
2022/05/05 13:16:04;;;;;;;5.35;4.80;;;;;23.50;96548.00;;;;8380693;28;20524;-72
2022/05/05 13:20:09;;;;;;;4.93;4.45;;;;;23.50;96544.00;;;;8379387;28;21015;-70
2022/05/05 13:24:14;;;;;;;6.30;4.47;;;;;23.60;96547.00;;;;8380130;28;20303;-72
2022/05/05 13:28:18;;;;;;;8.95;5.07;;;;;24.30;96538.00;;;;8379926;28;20228;-70
2022/05/05 13:32:22;;;;;;;6.32;4.78;;;;;25.00;96531.00;;;;8379853;28;20546;-70
2022/05/05 13:36:25;;;;;;;6.25;4.30;;;;;25.40;96529.00;;;;8381681;28;20306;-69
2022/05/05 13:40:28;;;;;;;5.20;4.43;;;;;26.20;96533.00;;;;8378762;28;20322;-70
2022/05/05 13:44:33;;;;;;;3.83;3.50;;;;;26.60;96524.00;;;;8380243;28;20327;-69
2022/05/05 13:48:36;;;;;;;4.55;4.15;;;;;26.50;96517.00;;;;8378141;28;20322;-72
2022/05/05 13:52:40;;;;;;;4.05;3.80;;;;;26.80;96525.00;;;;8377992;28;20311;-71
2022/05/05 13:56:43;;;;;;;3.40;3.20;;;;;27.30;96516.00;;;;8371841;28;20716;-70
2022/05/05 14:00:48;;;;;;;4.05;3.75;;;;;27.80;96524.00;;;;8374584;28;20228;-72
2022/05/05 14:04:52;;;;;;;3.90;3.63;;;;;28.10;96523.00;;;;8376515;28;20324;-71
2022/05/05 14:13:17;;;;;;;4.55;3.70;;;;;29.10;96527.00;;;;8368486;28;20298;-72
2022/05/05 14:17:22;;;;;;;3.63;3.40;;;;;29.10;96527.00;;;;8361333;28;20232;-70
2022/05/05 14:21:26;;;;;;;3.95;3.67;;;;;28.60;96523.00;;;;8356346;28;20235;-74
2022/05/05 14:25:29;;;;;;;3.72;3.42;;;;;28.80;96517.00;;;;8355572;28;20226;-67
2022/05/05 14:29:32;;;;;;;3.10;2.90;;;;;28.70;96515.00;;;;8358957;28;20241;-66
2022/05/05 14:33:37;;;;;;;4.07;3.03;;;;;28.90;96512.00;;;;8362769;28;20230;-67
2022/05/05 14:37:40;;;;;;;4.80;3.63;;;;;28.70;96516.00;;;;8354517;28;20243;-67
2022/05/05 14:41:43;;;;;;;3.67;3.33;;;;;28.30;96512.00;;;;8357481;28;20219;-67
2022/05/05 14:45:47;;;;;;;3.85;3.53;;;;;27.70;96499.00;;;;8350037;28;20216;-68
2022/05/05 14:49:54;;;;;;;4.90;3.10;;;;;27.00;96508.00;;;;8378608;28;20232;-67
2022/05/05 14:53:59;;;;;;;4.68;2.95;;;;;25.80;96509.00;;;;8379320;28;20274;-68
2022/05/05 14:58:02;;;;;;;3.30;3.10;;;;;24.90;96513.00;;;;8377682;28;20232;-68
2022/05/05 15:02:05;;;;;;;3.03;2.80;;;;;24.50;96515.00;;;;8378239;28;20711;-67
2022/05/05 15:06:10;;;;;;;3.40;3.20;;;;;24.10;96517.00;;;;8402141;28;20227;-67
2022/05/05 15:10:13;;;;;;;4.60;3.35;;;;;24.10;96516.00;;;;8412952;28;20644;-67
2022/05/05 15:14:16;;;;;;;4.05;3.63;;;;;24.10;96517.00;;;;8414372;28;20229;-70
2022/05/05 15:18:19;;;;;;;6.50;3.42;;;;;24.00;96509.00;;;;8405985;28;20242;-70
2022/05/05 15:22:24;;;;;;;4.55;3.30;;;;;23.90;96511.00;;;;8407264;28;20218;-70
2022/05/05 15:26:28;;;;;;;3.88;3.20;;;;;23.50;96516.00;;;;8413466;28;20572;-69
2022/05/05 15:30:31;;;;;;;4.00;3.30;;;;;23.40;96523.00;;;;8408052;28;20699;-73
2022/05/05 15:34:34;;;;;;;3.25;3.00;;;;;23.10;96518.00;;;;8389998;28;20230;-74
2022/05/05 15:38:38;;;;;;;5.63;3.90;;;;;23.00;96522.00;;;;8385371;28;20303;-71
2022/05/05 15:42:42;;;;;;;3.53;3.22;;;;;22.90;96528.00;;;;8394447;28;20317;-75
2022/05/05 15:46:45;;;;;;;3.95;3.53;;;;;22.90;96535.00;;;;8389877;28;20231;-72
2022/05/05 15:50:48;;;;;;;3.25;2.95;;;;;22.70;96533.00;;;;8398345;28;20242;-73
2022/05/05 15:54:53;;;;;;;3.05;2.85;;;;;22.50;96531.00;;;;8395460;28;21062;-71
2022/05/05 15:58:56;;;;;;;4.25;3.10;;;;;22.20;96535.00;;;;8398940;28;20784;-68
2022/05/05 16:03:00;;;;;;;6.00;3.00;;;;;22.00;96527.00;;;;8393462;28;20223;-69
2022/05/05 16:07:05;;;;;;;3.50;3.20;;;;;21.90;96534.00;;;;8399114;28;20886;-70
2022/05/05 16:11:09;;;;;;;3.67;3.20;;;;;21.80;96540.00;;;;8398498;28;20227;-68
2022/05/05 16:15:13;;;;;;;3.78;3.45;;;;;21.70;96537.00;;;;8406823;28;20223;-67
2022/05/05 16:19:17;;;;;;;6.75;3.70;;;;;21.70;96535.00;;;;8413320;28;20223;-68
2022/05/05 16:23:21;;;;;;;5.00;3.80;;;;;21.60;96536.00;;;;8412291;28;20668;-67
2022/05/05 16:31:57;;;;;;;5.13;3.42;;;;;21.40;96544.00;;;;8355425;28;20803;-70
2022/05/05 16:36:01;;;;;;;4.65;3.90;;;;;21.20;96537.00;;;;8409307;28;20257;-69
2022/05/05 16:40:05;;;;;;;7.38;4.57;;;;;21.10;96535.00;;;;8416107;28;20583;-74
2022/05/05 16:44:09;;;;;;;6.15;4.57;;;;;21.10;96534.00;;;;8413283;28;20233;-74
2022/05/05 16:48:13;;;;;;;13.45;6.05;;;;;21.00;96526.00;;;;8411302;28;20230;-71
2022/05/05 16:52:16;;;;;;;6.53;4.20;;;;;20.90;96538.00;;;;8415245;28;20229;-70
2022/05/05 16:56:20;;;;;;;7.15;4.07;;;;;20.80;96535.00;;;;8406567;28;20223;-73
2022/05/05 17:00:25;;;;;;;4.22;3.92;;;;;20.70;96534.00;;;;8399232;28;20230;-70
2022/05/05 17:04:28;;;;;;;4.72;4.22;;;;;20.60;96532.00;;;;8398053;28;20234;-69
2022/05/05 17:08:32;;;;;;;4.95;4.30;;;;;20.40;96536.00;;;;8391703;28;20684;-72
2022/05/05 17:12:35;;;;;;;4.95;4.55;;;;;20.30;96545.00;;;;8397766;28;20305;-71
2022/05/05 17:16:39;;;;;;;6.00;4.40;;;;;20.20;96546.00;;;;8395838;28;20930;-70
2022/05/05 17:20:43;;;;;;;5.55;4.78;;;;;20.10;96553.00;;;;8398416;28;20310;-71
2022/05/05 17:24:47;;;;;;;5.82;5.00;;;;;20.00;96552.00;;;;8395078;28;20219;-69
2022/05/05 17:28:50;;;;;;;5.03;4.63;;;;;20.00;96556.00;;;;8414989;28;20254;-71
2022/05/05 17:32:56;;;;;;;4.50;4.10;;;;;19.90;96555.00;;;;8414078;28;20232;-69
2022/05/05 17:36:59;;;;;;;5.82;4.78;;;;;19.80;96560.00;;;;8414998;28;20223;-70
2022/05/05 17:41:03;;;;;;;5.78;4.93;;;;;19.70;96565.00;;;;8412165;28;20238;-69
2022/05/05 17:53:50;;;;;;;5.80;5.20;;;;;19.10;96575.00;;;;8414602;28;20219;-74
2022/05/05 17:57:57;;;;;;;5.43;4.43;;;;;18.90;96579.00;;;;8409729;28;20254;-73
2022/05/05 18:02:00;;;;;;;7.85;4.80;;;;;18.80;96578.00;;;;8393772;28;20219;-71
2022/05/05 18:06:10;;;;;;;4.88;4.45;;;;;18.60;96589.00;;;;8363851;28;20223;-71
2022/05/05 18:10:13;;;;;;;5.28;4.78;;;;;18.40;96590.00;;;;8361523;28;20232;-72
2022/05/05 18:14:17;;;;;;;5.10;4.60;;;;;18.30;96592.00;;;;8346091;28;20233;-73
2022/05/05 18:18:20;;;;;;;4.95;4.55;;;;;18.20;96594.00;;;;8355527;28;20323;-72
2022/05/05 18:22:25;;;;;;;7.10;4.75;;;;;18.10;96601.00;;;;8350477;28;20229;-72
2022/05/05 18:26:29;;;;;;;4.70;4.30;;;;;18.00;96597.00;;;;8353618;28;20281;-77
2022/05/05 18:30:32;;;;;;;9.48;4.32;;;;;17.90;96593.00;;;;8356846;28;20330;-72
2022/05/05 18:34:36;;;;;;;6.22;4.95;;;;;17.80;96601.00;;;;8359823;28;20309;-71
2022/05/05 18:38:41;;;;;;;7.38;4.50;;;;;17.70;96601.00;;;;8362140;28;20230;-69
2022/05/05 18:42:44;;;;;;;6.45;5.85;;;;;17.60;96606.00;;;;8369007;28;20258;-71
2022/05/05 18:46:47;;;;;;;9.18;7.25;;;;;17.50;96605.00;;;;8373779;28;20230;-72
2022/05/05 18:50:51;;;;;;;5.30;4.78;;;;;17.50;96620.00;;;;8375688;28;20790;-76
2022/05/05 18:54:56;;;;;;;5.70;5.10;;;;;17.40;96620.00;;;;8373352;28;20959;-74
2022/05/05 18:58:59;;;;;;;5.70;4.82;;;;;17.30;96620.00;;;;8371532;28;20577;-73
2022/05/05 19:03:03;;;;;;;6.35;5.30;;;;;17.10;96629.00;;;;8382143;28;20243;-69
2022/05/05 19:07:06;;;;;;;5.72;5.22;;;;;17.10;96629.00;;;;8404921;28;20306;-69
2022/05/05 19:11:12;;;;;;;8.13;5.32;;;;;17.00;96633.00;;;;8400075;28;20223;-69
2022/05/05 19:15:15;;;;;;;5.68;5.07;;;;;16.90;96630.00;;;;8397755;28;20221;-69
2022/05/05 19:19:18;;;;;;;6.35;5.75;;;;;16.80;96627.00;;;;8403641;28;20852;-68
2022/05/05 19:23:22;;;;;;;6.10;5.50;;;;;16.60;96626.00;;;;8410142;28;20227;-73
2022/05/05 19:27:26;;;;;;;9.25;5.68;;;;;16.60;96644.00;;;;8412749;28;20748;-70
2022/05/05 19:31:30;;;;;;;6.20;5.57;;;;;16.50;96639.00;;;;8407746;28;20227;-75
2022/05/05 19:35:35;;;;;;;8.55;6.07;;;;;16.40;96643.00;;;;8410033;28;20227;-73
2022/05/05 19:39:38;;;;;;;6.53;5.85;;;;;16.30;96651.00;;;;8411509;28;20599;-72
2022/05/05 19:43:43;;;;;;;9.45;6.40;;;;;16.20;96654.00;;;;8407287;28;20239;-73
2022/05/05 20:01:16;;;;;;;9.60;7.43;;;;;15.80;96658.00;;;;8392890;28;20272;-73
2022/05/05 20:09:41;;;;;;;9.50;7.05;;;;;15.70;96668.00;;;;8407081;28;20681;-71
2022/05/05 20:13:44;;;;;;;10.30;7.47;;;;;15.60;96667.00;;;;8406265;28;20223;-69
2022/05/05 20:17:49;;;;;;;10.52;7.82;;;;;15.50;96673.00;;;;8411430;28;20237;-73
2022/05/05 20:21:52;;;;;;;10.50;8.00;;;;;15.50;96678.00;;;;8404416;28;20234;-68
2022/05/05 20:25:57;;;;;;;10.75;8.45;;;;;15.50;96674.00;;;;8405577;28;20319;-74
2022/05/05 20:30:02;;;;;;;20.40;9.68;;;;;15.30;96672.00;;;;8404815;28;20577;-70
2022/05/05 20:34:07;;;;;;;9.45;7.28;;;;;15.30;96674.00;;;;8406738;28;20683;-72
2022/05/05 20:38:15;;;;;;;10.02;7.45;;;;;15.20;96671.00;;;;8415617;28;20268;-71
2022/05/05 20:42:18;;;;;;;9.32;7.95;;;;;15.10;96668.00;;;;8413270;28;20287;-74
2022/05/05 20:46:21;;;;;;;8.70;7.47;;;;;15.00;96669.00;;;;8401791;28;20242;-74
2022/05/05 20:50:26;;;;;;;10.45;8.05;;;;;14.90;96678.00;;;;8411561;28;20245;-73
2022/05/05 20:54:30;;;;;;;8.48;7.25;;;;;14.90;96679.00;;;;8414451;28;20258;-72
2022/05/05 20:58:35;;;;;;;8.55;7.10;;;;;14.80;96681.00;;;;8412635;28;20583;-72
2022/05/05 21:02:38;;;;;;;10.25;7.70;;;;;14.80;96677.00;;;;8411860;28;20235;-73
2022/05/05 21:06:43;;;;;;;11.23;7.50;;;;;14.80;96686.00;;;;8411574;28;20222;-72
2022/05/05 21:10:49;;;;;;;13.82;7.57;;;;;14.80;96693.00;;;;8412358;28;20288;-75
2022/05/05 21:14:55;;;;;;;10.07;7.38;;;;;14.80;96700.00;;;;8415651;28;20222;-71
2022/05/05 21:19:01;;;;;;;8.13;7.13;;;;;14.80;96695.00;;;;8410884;28;20673;-74
2022/05/05 21:27:26;;;;;;;10.70;7.07;;;;;14.70;96701.00;;;;8406184;28;20244;-71